Time;durP1;ratioP1;P1;durP2;ratioP2;P2;SDS_P1;SDS_P2;PMS_P1;PMS_P2;Temp;Humidity;BMP_temperature;BMP_pressure;BME280_temperature;BME280_humidity;BME280_pressure;Samples;Min_cycle;Max_cycle;Signal;HPM_P1;HPM_P2
2021/05/13 00:01:39;;;;;;;2.95;2.70;;;;;;;;;;5045336;28;20301;-84
2021/05/13 00:04:06;;;;;;;3.80;3.13;;;;;;;;;;5044130;28;20190;-85
2021/05/13 00:06:33;;;;;;;4.25;3.38;;;;;;;;;;5044712;28;20569;-84
2021/05/13 00:08:59;;;;;;;3.60;3.40;;;;;;;;;;5045264;28;20226;-84
2021/05/13 00:11:31;;;;;;;6.30;4.72;;;;;;;;;;5047537;28;20210;-84
2021/05/13 00:13:58;;;;;;;4.53;2.95;;;;;;;;;;5048563;28;20581;-85
2021/05/13 00:16:29;;;;;;;6.82;3.40;;;;;;;;;;5049164;28;20234;-85
2021/05/13 00:18:57;;;;;;;3.95;3.65;;;;;;;;;;5049428;28;20237;-84
2021/05/13 00:21:25;;;;;;;4.38;3.75;;;;;;;;;;5049919;28;20244;-85
2021/05/13 00:23:52;;;;;;;4.35;3.95;;;;;;;;;;5050048;28;20203;-85
2021/05/13 00:26:34;;;;;;;3.50;3.22;;;;;;;;;;5050511;28;20194;-85
2021/05/13 00:29:01;;;;;;;5.75;3.60;;;;;;;;;;5049190;28;20225;-84
2021/05/13 00:31:29;;;;;;;3.88;3.42;;;;;;;;;;5049584;28;20209;-85
2021/05/13 00:33:59;;;;;;;3.80;3.28;;;;;;;;;;5050041;28;20214;-85
2021/05/13 00:36:26;;;;;;;5.50;3.85;;;;;;;;;;5032521;28;20206;-84
2021/05/13 00:38:53;;;;;;;4.95;3.80;;;;;;;;;;5049490;28;20209;-83
2021/05/13 00:41:19;;;;;;;3.90;3.25;;;;;;;;;;5049538;28;20202;-85
2021/05/13 00:43:46;;;;;;;3.83;3.40;;;;;;;;;;5049199;28;20203;-84
2021/05/13 00:46:14;;;;;;;3.28;2.97;;;;;;;;;;5048694;28;20209;-85
2021/05/13 00:48:44;;;;;;;4.05;3.42;;;;;;;;;;5049659;28;20266;-84
2021/05/13 00:51:11;;;;;;;4.20;3.83;;;;;;;;;;5049722;28;20198;-85
2021/05/13 00:53:40;;;;;;;2.83;2.63;;;;;;;;;;5049773;28;20226;-84
2021/05/13 00:56:07;;;;;;;3.90;3.15;;;;;;;;;;5050649;28;20202;-85
2021/05/13 00:58:36;;;;;;;3.15;2.90;;;;;;;;;;5050507;28;20695;-84
2021/05/13 01:01:06;;;;;;;3.13;2.45;;;;;;;;;;5051544;28;20647;-84
2021/05/13 01:03:34;;;;;;;4.45;2.97;;;;;;;;;;5051664;28;20234;-84
2021/05/13 01:06:05;;;;;;;3.53;2.47;;;;;;;;;;5053559;28;20207;-84
2021/05/13 01:08:31;;;;;;;3.10;2.70;;;;;;;;;;5053767;28;20190;-85
2021/05/13 01:10:58;;;;;;;3.00;2.70;;;;;;;;;;5052767;28;20219;-85
2021/05/13 01:13:26;;;;;;;3.33;3.03;;;;;;;;;;5051795;28;20215;-85
2021/05/13 01:16:05;;;;;;;3.88;3.20;;;;;;;;;;5052992;28;20293;-84
2021/05/13 01:18:32;;;;;;;3.83;2.97;;;;;;;;;;5053877;28;20202;-85
2021/05/13 01:20:59;;;;;;;3.13;2.72;;;;;;;;;;5053563;28;20285;-85
2021/05/13 01:23:26;;;;;;;4.25;3.40;;;;;;;;;;5052730;28;20207;-83
2021/05/13 01:25:55;;;;;;;3.50;3.20;;;;;;;;;;5053795;28;20213;-84
2021/05/13 01:28:23;;;;;;;3.72;3.05;;;;;;;;;;5053694;28;20238;-83
2021/05/13 01:30:52;;;;;;;3.20;3.00;;;;;;;;;;5039509;28;20237;-83
2021/05/13 01:33:20;;;;;;;3.40;3.10;;;;;;;;;;5034413;28;20252;-83
2021/05/13 01:35:48;;;;;;;4.88;3.42;;;;;;;;;;5034391;28;20676;-83
2021/05/13 01:38:17;;;;;;;2.78;2.58;;;;;;;;;;5034275;28;20590;-84
2021/05/13 01:40:53;;;;;;;5.00;2.97;;;;;;;;;;5034693;28;20368;-83
2021/05/13 01:43:20;;;;;;;4.13;3.05;;;;;;;;;;5034352;28;20209;-84
2021/05/13 01:45:47;;;;;;;3.30;3.00;;;;;;;;;;5014389;28;20230;-83
2021/05/13 01:48:14;;;;;;;3.63;3.22;;;;;;;;;;5014140;28;20669;-84
2021/05/13 01:50:41;;;;;;;3.88;3.33;;;;;;;;;;5014083;28;20276;-83
2021/05/13 01:53:08;;;;;;;6.28;3.45;;;;;;;;;;5014709;28;20199;-83
2021/05/13 01:55:36;;;;;;;3.75;3.45;;;;;;;;;;5031697;28;20217;-83
2021/05/13 01:58:04;;;;;;;4.55;4.15;;;;;;;;;;5033853;28;20638;-83
2021/05/13 02:00:32;;;;;;;3.42;3.13;;;;;;;;;;5033688;28;20228;-83
2021/05/13 02:02:59;;;;;;;4.25;3.85;;;;;;;;;;5034165;28;20251;-83
2021/05/13 02:05:26;;;;;;;4.22;3.55;;;;;;;;;;5033612;28;20277;-83
2021/05/13 02:07:53;;;;;;;5.05;3.50;;;;;;;;;;5033484;28;20210;-84
2021/05/13 02:10:20;;;;;;;5.25;3.75;;;;;;;;;;5033325;28;20249;-83
2021/05/13 02:12:48;;;;;;;4.18;3.83;;;;;;;;;;5033776;28;20194;-83
2021/05/13 02:15:18;;;;;;;4.85;3.78;;;;;;;;;;5018650;28;20361;-83
2021/05/13 02:17:45;;;;;;;4.65;3.95;;;;;;;;;;5013671;28;20253;-83
2021/05/13 02:20:14;;;;;;;4.80;4.30;;;;;;;;;;5013784;28;20234;-83
2021/05/13 02:22:42;;;;;;;5.10;4.22;;;;;;;;;;5013903;28;20267;-83
2021/05/13 02:25:11;;;;;;;5.40;4.60;;;;;;;;;;5027399;28;20210;-83
2021/05/13 02:27:39;;;;;;;5.30;4.45;;;;;;;;;;5033579;28;20202;-83
2021/05/13 02:30:07;;;;;;;3.88;3.58;;;;;;;;;;5033149;28;20221;-83
2021/05/13 02:32:36;;;;;;;5.38;4.60;;;;;;;;;;5032865;28;20206;-83
2021/05/13 02:35:03;;;;;;;9.68;4.40;;;;;;;;;;5032066;28;20222;-83
2021/05/13 02:37:30;;;;;;;6.22;4.00;;;;;;;;;;5033715;28;20205;-83
2021/05/13 02:39:57;;;;;;;6.00;4.35;;;;;;;;;;5033729;28;20339;-83
2021/05/13 02:42:24;;;;;;;4.90;4.47;;;;;;;;;;5033708;28;20202;-83
2021/05/13 02:44:50;;;;;;;6.65;4.25;;;;;;;;;;5032826;28;20202;-83
2021/05/13 02:47:17;;;;;;;6.10;5.50;;;;;;;;;;5032846;28;20202;-83
2021/05/13 02:49:45;;;;;;;6.13;5.00;;;;;;;;;;5032658;28;20230;-83
2021/05/13 02:52:12;;;;;;;7.82;6.10;;;;;;;;;;5031828;28;20217;-83
2021/05/13 02:54:38;;;;;;;8.65;6.28;;;;;;;;;;5032177;28;20215;-83
2021/05/13 02:57:06;;;;;;;8.05;6.13;;;;;;;;;;5032150;28;20209;-83
2021/05/13 02:59:43;;;;;;;7.70;6.57;;;;;;;;;;5032603;28;20225;-83
2021/05/13 03:02:10;;;;;;;7.85;5.60;;;;;;;;;;5032906;28;20632;-83
2021/05/13 03:04:37;;;;;;;8.35;7.22;;;;;;;;;;5032564;28;20230;-82
2021/05/13 03:07:06;;;;;;;8.20;6.30;;;;;;;;;;5032492;28;20206;-83
2021/05/13 03:09:36;;;;;;;7.18;6.47;;;;;;;;;;5032506;28;20226;-83
2021/05/13 03:12:04;;;;;;;7.75;7.03;;;;;;;;;;5032327;28;20672;-83
2021/05/13 03:14:31;;;;;;;7.82;7.13;;;;;;;;;;5032202;28;20597;-83
2021/05/13 03:16:58;;;;;;;8.98;7.25;;;;;;;;;;5032226;28;20510;-83
2021/05/13 03:19:30;;;;;;;9.02;8.13;;;;;;;;;;5032012;28;20600;-83
2021/05/13 03:22:00;;;;;;;11.68;8.52;;;;;;;;;;5032594;28;20209;-83
2021/05/13 03:24:32;;;;;;;10.90;8.55;;;;;;;;;;5032260;28;20198;-83
2021/05/13 03:27:09;;;;;;;11.35;9.43;;;;;;;;;;5032200;28;20206;-83
2021/05/13 03:29:36;;;;;;;10.35;9.38;;;;;;;;;;5032213;28;20226;-83
2021/05/13 03:32:03;;;;;;;11.15;10.15;;;;;;;;;;5031649;28;20815;-83
2021/05/13 03:34:30;;;;;;;10.40;9.45;;;;;;;;;;5032010;28;20230;-83
2021/05/13 03:36:57;;;;;;;11.30;10.25;;;;;;;;;;5032164;28;20213;-83
2021/05/13 03:39:24;;;;;;;10.63;9.73;;;;;;;;;;5031791;28;20237;-83
2021/05/13 03:41:51;;;;;;;12.60;11.45;;;;;;;;;;5032441;28;20205;-83
2021/05/13 03:44:18;;;;;;;10.98;9.98;;;;;;;;;;5032042;28;20205;-83
2021/05/13 03:46:45;;;;;;;11.00;10.00;;;;;;;;;;5034998;28;20669;-83
2021/05/13 03:49:12;;;;;;;10.77;9.77;;;;;;;;;;5035448;28;20222;-83
2021/05/13 03:51:39;;;;;;;11.07;10.07;;;;;;;;;;5035599;28;20206;-83
2021/05/13 03:54:06;;;;;;;11.27;10.18;;;;;;;;;;5035481;28;20198;-83
2021/05/13 03:56:33;;;;;;;11.93;10.73;;;;;;;;;;5035660;28;20602;-83
2021/05/13 03:59:05;;;;;;;10.77;9.68;;;;;;;;;;5034875;28;20222;-82
2021/05/13 04:01:45;;;;;;;11.10;10.10;;;;;;;;;;5035905;28;20252;-83
2021/05/13 04:04:12;;;;;;;9.95;9.07;;;;;;;;;;5035742;28;20398;-83
2021/05/13 04:06:39;;;;;;;10.38;9.38;;;;;;;;;;5036150;28;20201;-83
2021/05/13 04:09:09;;;;;;;12.52;9.57;;;;;;;;;;5035479;28;20712;-82
2021/05/13 04:11:37;;;;;;;11.35;10.38;;;;;;;;;;5035602;28;20289;-83
2021/05/13 04:14:05;;;;;;;10.20;9.25;;;;;;;;;;5035772;28;20653;-83
2021/05/13 04:16:35;;;;;;;10.27;9.32;;;;;;;;;;5035357;28;20291;-83
2021/05/13 04:19:02;;;;;;;10.13;9.30;;;;;;;;;;5035543;28;20230;-83
2021/05/13 04:21:29;;;;;;;9.00;8.23;;;;;;;;;;5035348;28;20276;-83
2021/05/13 04:23:56;;;;;;;9.20;8.40;;;;;;;;;;5035293;28;20207;-83
2021/05/13 04:26:23;;;;;;;9.57;8.68;;;;;;;;;;5035624;28;20260;-83
2021/05/13 04:28:50;;;;;;;10.55;9.55;;;;;;;;;;5035427;28;20206;-83
2021/05/13 04:31:17;;;;;;;9.50;8.68;;;;;;;;;;5035326;28;20205;-83
2021/05/13 04:33:44;;;;;;;10.48;9.07;;;;;;;;;;5035157;28;20261;-83
2021/05/13 04:36:11;;;;;;;9.50;8.60;;;;;;;;;;5037741;28;20272;-83
2021/05/13 04:38:38;;;;;;;9.27;8.38;;;;;;;;;;5036192;28;20202;-82
2021/05/13 04:41:05;;;;;;;9.63;8.20;;;;;;;;;;5037079;28;20210;-83
2021/05/13 04:43:36;;;;;;;10.32;9.43;;;;;;;;;;5038074;28;20584;-83
2021/05/13 04:46:03;;;;;;;9.10;8.18;;;;;;;;;;5036867;28;20206;-83
2021/05/13 04:48:41;;;;;;;8.90;8.00;;;;;;;;;;5036775;28;20578;-83
2021/05/13 04:51:08;;;;;;;8.02;7.38;;;;;;;;;;5038202;28;20201;-83
2021/05/13 04:53:35;;;;;;;9.55;8.70;;;;;;;;;;5037128;28;20202;-84
2021/05/13 04:56:02;;;;;;;8.65;7.82;;;;;;;;;;5037941;28;20210;-83
2021/05/13 04:58:28;;;;;;;8.30;7.55;;;;;;;;;;5036653;28;20348;-83
2021/05/13 05:00:55;;;;;;;9.00;7.22;;;;;;;;;;5036915;28;20222;-83
2021/05/13 05:03:22;;;;;;;8.93;7.47;;;;;;;;;;5038579;28;20199;-83
2021/05/13 05:05:50;;;;;;;6.95;6.35;;;;;;;;;;5036409;28;20264;-84
2021/05/13 05:08:16;;;;;;;6.72;6.15;;;;;;;;;;5036200;28;20206;-83
2021/05/13 05:10:44;;;;;;;7.35;6.65;;;;;;;;;;5036276;28;20230;-83
2021/05/13 05:13:11;;;;;;;7.07;6.45;;;;;;;;;;5037276;28;20213;-83
2021/05/13 05:15:38;;;;;;;7.20;6.53;;;;;;;;;;5036305;28;20603;-83
2021/05/13 05:18:05;;;;;;;7.30;6.60;;;;;;;;;;5035638;28;20206;-83
2021/05/13 05:20:32;;;;;;;7.40;6.80;;;;;;;;;;5037235;28;20226;-83
2021/05/13 05:22:59;;;;;;;7.15;6.53;;;;;;;;;;5037019;28;20202;-83
2021/05/13 05:25:26;;;;;;;7.22;6.53;;;;;;;;;;5037472;28;20204;-83
2021/05/13 05:27:53;;;;;;;6.75;6.15;;;;;;;;;;5038554;28;20206;-83
2021/05/13 05:30:20;;;;;;;6.63;5.95;;;;;;;;;;5037031;28;20594;-86
2021/05/13 05:32:47;;;;;;;6.15;5.55;;;;;;;;;;5037578;28;20202;-83
2021/05/13 05:35:14;;;;;;;6.57;5.97;;;;;;;;;;5036273;28;20229;-83
2021/05/13 05:37:41;;;;;;;5.22;4.82;;;;;;;;;;5038746;28;20210;-83
2021/05/13 05:40:12;;;;;;;4.93;4.53;;;;;;;;;;5039198;28;20233;-83
2021/05/13 05:42:39;;;;;;;5.35;4.85;;;;;;;;;;5037283;28;20665;-83
2021/05/13 05:45:08;;;;;;;5.00;4.60;;;;;;;;;;5037477;28;20198;-83
2021/05/13 05:47:34;;;;;;;5.70;5.20;;;;;;;;;;5037225;28;20210;-83
2021/05/13 05:50:01;;;;;;;5.43;4.97;;;;;;;;;;5036298;28;20593;-83
2021/05/13 05:52:28;;;;;;;5.50;5.10;;;;;;;;;;5038565;28;20202;-86
2021/05/13 05:54:56;;;;;;;6.43;5.82;;;;;;;;;;5037884;28;20665;-84
2021/05/13 05:57:24;;;;;;;6.30;5.60;;;;;;;;;;5037330;28;20205;-84
2021/05/13 05:59:51;;;;;;;5.50;5.10;;;;;;;;;;5035970;28;20607;-84
2021/05/13 06:02:18;;;;;;;5.65;5.25;;;;;;;;;;5035095;28;20209;-83
2021/05/13 06:04:45;;;;;;;6.70;5.68;;;;;;;;;;5035651;28;20213;-84
2021/05/13 06:07:12;;;;;;;6.22;5.53;;;;;;;;;;5035054;28;20285;-83
2021/05/13 06:09:40;;;;;;;6.35;5.85;;;;;;;;;;5034875;28;20219;-84
2021/05/13 06:12:07;;;;;;;7.90;6.07;;;;;;;;;;5035275;28;20187;-84
2021/05/13 06:14:35;;;;;;;6.63;5.97;;;;;;;;;;5034688;28;20206;-84
2021/05/13 06:17:02;;;;;;;6.15;5.03;;;;;;;;;;5034098;28;20610;-83
2021/05/13 06:19:29;;;;;;;8.32;6.60;;;;;;;;;;5035182;28;20222;-84
2021/05/13 06:21:56;;;;;;;6.57;6.00;;;;;;;;;;5035514;28;20567;-83
2021/05/13 06:24:22;;;;;;;9.00;8.27;;;;;;;;;;5035096;28;20195;-83
2021/05/13 06:27:01;;;;;;;7.85;7.18;;;;;;;;;;5035339;28;20203;-83
2021/05/13 06:29:29;;;;;;;7.68;6.95;;;;;;;;;;5034734;28;20218;-83
2021/05/13 06:31:57;;;;;;;10.02;8.77;;;;;;;;;;5034997;28;20206;-83
2021/05/13 06:34:25;;;;;;;8.18;7.40;;;;;;;;;;5034998;28;20206;-83
2021/05/13 06:36:53;;;;;;;9.27;8.32;;;;;;;;;;5034682;28;20226;-84
2021/05/13 06:39:20;;;;;;;8.35;7.60;;;;;;;;;;5034636;28;20222;-84
2021/05/13 06:41:47;;;;;;;7.95;7.25;;;;;;;;;;5034873;28;20209;-83
2021/05/13 06:44:14;;;;;;;9.15;7.75;;;;;;;;;;5034963;28;20202;-84
2021/05/13 06:46:41;;;;;;;8.13;7.43;;;;;;;;;;5034589;28;20552;-83
2021/05/13 06:49:09;;;;;;;8.98;8.07;;;;;;;;;;5034593;28;20650;-84
2021/05/13 06:51:35;;;;;;;10.07;9.07;;;;;;;;;;5034735;28;20199;-84
2021/05/13 06:54:04;;;;;;;8.30;7.60;;;;;;;;;;5033812;28;20202;-83
2021/05/13 06:56:31;;;;;;;7.13;6.53;;;;;;;;;;5033969;28;20277;-83
2021/05/13 06:58:58;;;;;;;8.68;7.88;;;;;;;;;;5034568;28;20206;-84
2021/05/13 07:01:26;;;;;;;8.50;7.80;;;;;;;;;;5034465;28;20277;-84
2021/05/13 07:03:53;;;;;;;11.50;10.52;;;;;;;;;;5033812;28;20252;-84
2021/05/13 07:06:21;;;;;;;10.73;9.73;;;;;;;;;;5034802;28;20198;-85
2021/05/13 07:08:48;;;;;;;10.20;9.25;;;;;;;;;;5033916;28;20209;-84
2021/05/13 07:11:14;;;;;;;9.65;8.65;;;;;;;;;;5033970;28;20210;-84
2021/05/13 07:13:41;;;;;;;11.73;10.57;;;;;;;;;;5035034;28;20195;-84
2021/05/13 07:16:08;;;;;;;10.75;9.75;;;;;;;;;;5033914;28;20254;-84
2021/05/13 07:18:35;;;;;;;9.57;8.77;;;;;;;;;;5034318;28;20214;-84
2021/05/13 07:21:02;;;;;;;10.70;9.75;;;;;;;;;;5033575;28;20218;-83
2021/05/13 07:23:29;;;;;;;10.77;9.25;;;;;;;;;;5034520;28;20226;-84
2021/05/13 07:25:58;;;;;;;9.73;8.00;;;;;;;;;;5034076;28;20202;-85
2021/05/13 07:28:25;;;;;;;10.75;9.75;;;;;;;;;;5034580;28;20217;-84
2021/05/13 07:30:51;;;;;;;8.18;7.47;;;;;;;;;;5034457;28;20599;-84
2021/05/13 07:33:18;;;;;;;8.55;7.75;;;;;;;;;;5034948;28;20206;-84
2021/05/13 07:35:45;;;;;;;8.60;7.85;;;;;;;;;;5034613;28;20198;-83
2021/05/13 07:38:12;;;;;;;8.70;7.60;;;;;;;;;;5034499;28;20210;-84
2021/05/13 07:40:40;;;;;;;8.90;8.13;;;;;;;;;;5034954;28;20233;-84
2021/05/13 07:43:08;;;;;;;8.05;7.25;;;;;;;;;;5034727;28;20252;-84
2021/05/13 07:45:40;;;;;;;8.77;7.97;;;;;;;;;;5034584;28;20211;-84
2021/05/13 07:48:08;;;;;;;10.05;9.05;;;;;;;;;;5034176;28;20206;-83
2021/05/13 07:50:34;;;;;;;9.50;8.55;;;;;;;;;;5034434;28;20291;-84
2021/05/13 07:53:02;;;;;;;8.13;7.47;;;;;;;;;;5034403;28;20698;-84
2021/05/13 07:55:28;;;;;;;7.57;6.88;;;;;;;;;;5034181;28;20676;-84
2021/05/13 07:57:56;;;;;;;8.80;8.00;;;;;;;;;;5034060;28;20230;-84
2021/05/13 08:00:24;;;;;;;7.93;7.22;;;;;;;;;;5032450;28;20226;-85
2021/05/13 08:02:52;;;;;;;8.35;7.55;;;;;;;;;;5033231;28;20252;-84
2021/05/13 08:05:19;;;;;;;10.48;8.80;;;;;;;;;;5032953;28;20202;-88
2021/05/13 08:07:46;;;;;;;7.85;7.15;;;;;;;;;;5032095;28;20203;-86
2021/05/13 08:10:13;;;;;;;8.65;7.85;;;;;;;;;;5033856;28;20248;-84
2021/05/13 08:12:40;;;;;;;8.57;7.80;;;;;;;;;;5034004;28;20194;-83
2021/05/13 08:15:12;;;;;;;8.25;7.45;;;;;;;;;;5034157;28;20205;-84
2021/05/13 08:17:39;;;;;;;8.32;7.60;;;;;;;;;;5034815;28;20288;-84
2021/05/13 08:20:09;;;;;;;8.18;7.45;;;;;;;;;;5035001;28;20231;-85
2021/05/13 08:22:36;;;;;;;8.48;7.70;;;;;;;;;;5034002;28;20477;-83
2021/05/13 08:25:04;;;;;;;7.60;6.85;;;;;;;;;;5033041;28;20210;-83
2021/05/13 08:27:31;;;;;;;8.32;7.63;;;;;;;;;;5035497;28;20657;-86
2021/05/13 08:29:58;;;;;;;8.93;7.97;;;;;;;;;;5036301;28;20230;-84
2021/05/13 08:32:26;;;;;;;8.18;7.47;;;;;;;;;;5036924;28;20202;-84
2021/05/13 08:34:54;;;;;;;8.95;8.23;;;;;;;;;;5038701;28;20232;-84
2021/05/13 08:37:22;;;;;;;7.43;6.70;;;;;;;;;;5040627;28;20218;-84
2021/05/13 08:39:49;;;;;;;10.15;9.25;;;;;;;;;;5041037;28;20313;-84
2021/05/13 08:42:17;;;;;;;10.68;8.80;;;;;;;;;;5038655;28;20202;-85
2021/05/13 08:44:45;;;;;;;14.82;10.23;;;;;;;;;;5045129;28;20571;-86
2021/05/13 08:47:13;;;;;;;7.97;7.28;;;;;;;;;;5041986;28;20226;-86
2021/05/13 08:49:42;;;;;;;7.90;7.10;;;;;;;;;;5039208;28;20222;-84
2021/05/13 08:52:09;;;;;;;8.48;7.45;;;;;;;;;;5037955;28;20194;-84
2021/05/13 08:54:37;;;;;;;8.63;7.53;;;;;;;;;;5037726;28;20233;-84
2021/05/13 08:57:04;;;;;;;10.07;7.15;;;;;;;;;;5037100;28;20592;-85
2021/05/13 08:59:31;;;;;;;9.90;8.55;;;;;;;;;;5038878;28;20220;-85
2021/05/13 09:02:00;;;;;;;10.95;8.55;;;;;;;;;;5037521;28;20297;-84
2021/05/13 09:04:38;;;;;;;8.63;7.68;;;;;;;;;;5037379;28;20201;-84
2021/05/13 09:07:15;;;;;;;9.20;8.40;;;;;;;;;;5015629;28;20203;-84
2021/05/13 09:09:59;;;;;;;8.43;7.63;;;;;;;;;;5015611;28;20763;-85
2021/05/13 09:12:29;;;;;;;11.00;8.77;;;;;;;;;;5015896;28;20191;-85
2021/05/13 09:14:59;;;;;;;9.50;8.55;;;;;;;;;;5015583;28;20211;-85
2021/05/13 09:17:27;;;;;;;9.55;8.60;;;;;;;;;;5016053;28;20222;-85
2021/05/13 09:19:55;;;;;;;10.13;8.80;;;;;;;;;;5015952;28;20215;-85
2021/05/13 09:22:25;;;;;;;9.18;8.25;;;;;;;;;;5016068;28;20210;-85
2021/05/13 09:24:57;;;;;;;9.60;8.70;;;;;;;;;;5015743;28;20206;-85
2021/05/13 09:27:29;;;;;;;9.02;8.10;;;;;;;;;;5015286;28;20203;-85
2021/05/13 09:30:10;;;;;;;8.63;7.93;;;;;;;;;;5015136;28;20708;-85
2021/05/13 09:32:39;;;;;;;8.80;7.88;;;;;;;;;;5015159;28;20242;-85
2021/05/13 09:35:09;;;;;;;7.20;6.63;;;;;;;;;;5020470;28;20197;-85
2021/05/13 09:37:40;;;;;;;9.57;7.22;;;;;;;;;;5034698;28;20222;-85
2021/05/13 09:40:09;;;;;;;7.43;6.50;;;;;;;;;;5034544;28;20226;-85
2021/05/13 09:42:36;;;;;;;8.82;6.85;;;;;;;;;;5033976;28;20202;-84
2021/05/13 09:45:06;;;;;;;7.10;6.40;;;;;;;;;;5034433;28;20676;-84
2021/05/13 09:47:34;;;;;;;9.45;5.95;;;;;;;;;;5035126;28;20657;-85
2021/05/13 09:50:09;;;;;;;6.78;6.05;;;;;;;;;;5034549;28;20318;-84
2021/05/13 09:52:48;;;;;;;7.90;6.15;;;;;;;;;;5034325;28;20731;-85
2021/05/13 09:55:25;;;;;;;7.72;6.88;;;;;;;;;;5034541;28;20186;-85
2021/05/13 09:58:02;;;;;;;7.05;6.38;;;;;;;;;;5034688;28;20228;-85
2021/05/13 10:00:41;;;;;;;7.97;6.30;;;;;;;;;;5034751;28;20226;-85
2021/05/13 10:03:11;;;;;;;7.47;6.78;;;;;;;;;;5034448;28;20583;-85
2021/05/13 10:05:40;;;;;;;7.82;7.13;;;;;;;;;;5034438;28;20260;-85
2021/05/13 10:08:08;;;;;;;6.38;5.60;;;;;;;;;;5034345;28;20210;-85
2021/05/13 10:10:36;;;;;;;8.85;6.60;;;;;;;;;;5033849;28;20248;-85
2021/05/13 10:13:05;;;;;;;6.13;5.55;;;;;;;;;;5034171;28;20198;-85
2021/05/13 10:15:32;;;;;;;6.07;5.43;;;;;;;;;;5033950;28;20233;-85
2021/05/13 10:18:06;;;;;;;6.05;5.55;;;;;;;;;;5034190;28;20313;-85
2021/05/13 10:20:33;;;;;;;6.90;6.30;;;;;;;;;;5032774;28;20222;-85
2021/05/13 10:23:00;;;;;;;6.10;5.13;;;;;;;;;;5035496;28;20212;-85
2021/05/13 10:25:29;;;;;;;5.38;4.88;;;;;;;;;;5034690;28;20715;-85
2021/05/13 10:28:00;;;;;;;5.75;5.15;;;;;;;;;;5035253;28;20202;-85
2021/05/13 10:30:30;;;;;;;4.90;4.45;;;;;;;;;;5035927;28;20237;-85
2021/05/13 10:33:32;;;;;;;5.78;4.32;;;;;;;;;;5036463;28;20677;-85
2021/05/13 10:36:08;;;;;;;5.20;4.70;;;;;;;;;;5020227;28;20304;-85
2021/05/13 10:38:41;;;;;;;5.03;4.57;;;;;;;;;;5036781;28;20210;-86
2021/05/13 10:41:49;;;;;;;4.82;4.15;;;;;;;;;;5036308;28;20203;-86
2021/05/13 10:44:37;;;;;;;4.47;3.47;;;;;;;;;;5035437;28;20663;-85
2021/05/13 10:47:07;;;;;;;5.65;3.35;;;;;;;;;;5033543;28;20201;-85
2021/05/13 10:49:48;;;;;;;4.07;3.40;;;;;;;;;;5034313;28;20280;-85
2021/05/13 10:52:32;;;;;;;3.85;3.38;;;;;;;;;;5036966;28;20620;-85
2021/05/13 10:55:00;;;;;;;6.47;4.13;;;;;;;;;;5034585;28;20873;-85
2021/05/13 10:57:28;;;;;;;3.88;3.33;;;;;;;;;;5034039;28;20305;-85
2021/05/13 11:00:26;;;;;;;8.85;4.30;;;;;;;;;;5032486;28;20233;-85
2021/05/13 11:02:54;;;;;;;3.85;3.55;;;;;;;;;;4972270;28;20595;-85
2021/05/13 11:05:44;;;;;;;5.15;3.47;;;;;;;;;;5019738;28;20722;-85
2021/05/13 11:08:28;;;;;;;3.70;3.40;;;;;;;;;;5032944;28;20198;-85
2021/05/13 11:11:02;;;;;;;4.28;3.97;;;;;;;;;;5032595;28;20700;-85
2021/05/13 11:13:44;;;;;;;3.83;3.53;;;;;;;;;;5033085;28;20227;-85
2021/05/13 11:16:54;;;;;;;4.63;4.10;;;;;;;;;;5032408;28;20256;-85
2021/05/13 11:19:24;;;;;;;4.78;4.15;;;;;;;;;;5032689;28;20217;-85
2021/05/13 11:22:04;;;;;;;4.30;3.25;;;;;;;;;;5032605;28;20236;-85
2021/05/13 11:24:33;;;;;;;3.97;3.67;;;;;;;;;;5032437;28;20582;-85
2021/05/13 11:27:00;;;;;;;4.80;4.03;;;;;;;;;;5033450;28;20221;-86
2021/05/13 11:29:28;;;;;;;4.80;3.53;;;;;;;;;;5032692;28;20237;-85
2021/05/13 11:31:55;;;;;;;4.90;3.55;;;;;;;;;;5032236;28;20190;-85
2021/05/13 11:34:22;;;;;;;4.28;3.85;;;;;;;;;;5032082;28;20213;-85
2021/05/13 11:36:48;;;;;;;3.75;3.45;;;;;;;;;;5032857;28;20206;-86
2021/05/13 11:39:17;;;;;;;4.00;3.50;;;;;;;;;;5032999;28;20230;-86
2021/05/13 11:41:45;;;;;;;5.10;3.30;;;;;;;;;;5032823;28;20202;-85
2021/05/13 11:44:13;;;;;;;4.45;2.75;;;;;;;;;;5032519;28;20179;-85
2021/05/13 11:46:40;;;;;;;3.42;3.08;;;;;;;;;;5033038;28;20183;-86
2021/05/13 11:49:08;;;;;;;6.35;2.60;;;;;;;;;;5032308;28;20238;-85
2021/05/13 11:51:37;;;;;;;3.35;2.40;;;;;;;;;;5032219;28;20572;-86
2021/05/13 11:54:08;;;;;;;3.75;3.45;;;;;;;;;;5032471;28;20702;-86
2021/05/13 11:56:36;;;;;;;4.38;3.10;;;;;;;;;;5033122;28;20190;-86
2021/05/13 11:59:05;;;;;;;3.30;3.00;;;;;;;;;;5032384;28;20222;-85
2021/05/13 12:01:34;;;;;;;3.50;2.70;;;;;;;;;;5032521;28;20286;-85
2021/05/13 12:04:08;;;;;;;3.70;3.40;;;;;;;;;;5032592;28;20665;-85
2021/05/13 12:06:51;;;;;;;3.95;3.38;;;;;;;;;;5034330;28;20210;-85
2021/05/13 12:09:22;;;;;;;9.77;4.82;;;;;;;;;;5036800;28;20362;-85
2021/05/13 12:11:50;;;;;;;4.63;3.55;;;;;;;;;;5036384;28;20336;-85
2021/05/13 12:14:24;;;;;;;3.50;2.95;;;;;;;;;;5036637;28;20576;-85
2021/05/13 12:16:54;;;;;;;3.63;3.33;;;;;;;;;;5036376;28;20589;-86
2021/05/13 12:19:22;;;;;;;5.55;2.97;;;;;;;;;;5036419;28;20226;-85
2021/05/13 12:21:54;;;;;;;4.28;2.90;;;;;;;;;;5035736;28;20213;-85
2021/05/13 12:24:27;;;;;;;4.72;3.40;;;;;;;;;;5036403;28;20198;-86
2021/05/13 12:26:54;;;;;;;3.20;2.90;;;;;;;;;;5036358;28;20374;-85
2021/05/13 12:29:21;;;;;;;2.78;2.53;;;;;;;;;;5036247;28;20222;-85
2021/05/13 12:31:49;;;;;;;4.28;2.72;;;;;;;;;;5036782;28;20186;-86
2021/05/13 12:34:34;;;;;;;3.35;2.70;;;;;;;;;;5036135;28;20183;-85
2021/05/13 12:37:01;;;;;;;2.95;2.47;;;;;;;;;;5035789;28;20212;-85
2021/05/13 12:39:32;;;;;;;4.63;3.08;;;;;;;;;;5035513;28;20222;-85
2021/05/13 12:41:59;;;;;;;3.05;2.08;;;;;;;;;;5035712;28;20187;-85
2021/05/13 12:44:28;;;;;;;3.97;3.28;;;;;;;;;;5036205;28;20187;-85
2021/05/13 12:47:00;;;;;;;4.55;2.78;;;;;;;;;;5035762;28;20206;-85
2021/05/13 12:49:29;;;;;;;2.97;2.25;;;;;;;;;;5035696;28;20237;-86
2021/05/13 12:52:06;;;;;;;3.38;2.50;;;;;;;;;;5035608;28;20187;-85
2021/05/13 12:54:35;;;;;;;2.97;2.67;;;;;;;;;;5035795;28;20202;-85
2021/05/13 12:57:24;;;;;;;2.55;2.35;;;;;;;;;;5036277;28;20198;-85
2021/05/13 12:59:56;;;;;;;3.08;2.70;;;;;;;;;;5035457;28;20226;-86
2021/05/13 13:02:29;;;;;;;2.90;2.60;;;;;;;;;;5036313;28;20186;-85
2021/05/13 13:04:58;;;;;;;3.30;2.50;;;;;;;;;;5036385;28;20264;-85
2021/05/13 13:07:40;;;;;;;3.42;3.13;;;;;;;;;;5035745;28;20694;-85
2021/05/13 13:10:33;;;;;;;2.22;2.00;;;;;;;;;;5036111;28;20233;-85
2021/05/13 13:13:10;;;;;;;3.13;1.90;;;;;;;;;;5036122;28;20546;-86
2021/05/13 13:15:42;;;;;;;1.85;1.70;;;;;;;;;;5035848;28;20229;-86
2021/05/13 13:18:10;;;;;;;1.90;1.75;;;;;;;;;;5034700;28;20229;-85
2021/05/13 13:20:38;;;;;;;2.88;1.75;;;;;;;;;;5036382;28;20226;-85
2021/05/13 13:23:33;;;;;;;2.97;2.05;;;;;;;;;;5036239;28;20653;-85
2021/05/13 13:26:05;;;;;;;2.13;1.92;;;;;;;;;;5000770;28;20213;-85
2021/05/13 13:28:33;;;;;;;3.00;2.30;;;;;;;;;;5036328;28;20198;-85
2021/05/13 13:31:04;;;;;;;2.35;2.15;;;;;;;;;;5037564;28;20357;-85
2021/05/13 13:33:32;;;;;;;4.88;2.38;;;;;;;;;;5037048;28;20190;-85
2021/05/13 13:35:59;;;;;;;2.38;2.17;;;;;;;;;;5035447;28;20657;-85
2021/05/13 13:38:26;;;;;;;3.05;2.72;;;;;;;;;;5035678;28;20214;-85
2021/05/13 13:40:57;;;;;;;4.07;3.50;;;;;;;;;;5035499;28;20222;-86
2021/05/13 13:43:25;;;;;;;4.05;3.65;;;;;;;;;;5035981;28;20245;-85
2021/05/13 13:45:52;;;;;;;4.45;3.90;;;;;;;;;;5036056;28;20195;-86
2021/05/13 13:48:21;;;;;;;5.30;4.32;;;;;;;;;;5035654;28;20202;-85
2021/05/13 13:50:50;;;;;;;4.70;4.22;;;;;;;;;;5035226;28;20226;-85
2021/05/13 13:53:18;;;;;;;6.40;5.45;;;;;;;;;;5035943;28;20190;-85
2021/05/13 13:55:48;;;;;;;4.93;4.05;;;;;;;;;;5035934;28;20297;-85
2021/05/13 13:58:16;;;;;;;4.53;4.03;;;;;;;;;;5035313;28;20207;-85
2021/05/13 14:00:43;;;;;;;5.05;4.38;;;;;;;;;;5034900;28;20229;-85
2021/05/13 14:03:11;;;;;;;5.25;3.80;;;;;;;;;;5034487;28;20684;-85
2021/05/13 14:05:38;;;;;;;3.97;3.53;;;;;;;;;;5035375;28;20209;-85
2021/05/13 14:08:05;;;;;;;5.18;4.68;;;;;;;;;;5034397;28;20202;-85
2021/05/13 14:10:32;;;;;;;4.47;3.97;;;;;;;;;;5033814;28;20225;-86
2021/05/13 14:12:59;;;;;;;3.63;3.40;;;;;;;;;;5033997;28;20229;-85
2021/05/13 14:15:27;;;;;;;5.45;4.20;;;;;;;;;;5033926;28;20704;-85
2021/05/13 14:17:55;;;;;;;4.13;3.72;;;;;;;;;;5034373;28;20591;-86
2021/05/13 14:20:22;;;;;;;4.03;3.65;;;;;;;;;;5034070;28;20332;-86
2021/05/13 14:22:50;;;;;;;5.38;3.35;;;;;;;;;;5034590;28;20225;-85
2021/05/13 14:25:17;;;;;;;3.97;3.67;;;;;;;;;;5034206;28;20240;-85
2021/05/13 14:27:44;;;;;;;11.38;4.72;;;;;;;;;;5033673;28;20663;-85
2021/05/13 14:30:15;;;;;;;8.23;4.03;;;;;;;;;;5033514;28;20229;-85
2021/05/13 14:32:45;;;;;;;4.18;3.75;;;;;;;;;;5033788;28;20675;-85
2021/05/13 14:35:16;;;;;;;4.63;3.55;;;;;;;;;;5033480;28;20687;-86
2021/05/13 14:37:42;;;;;;;5.35;3.83;;;;;;;;;;5033859;28;20206;-85
2021/05/13 14:40:11;;;;;;;3.25;3.05;;;;;;;;;;5033764;28;20238;-85
2021/05/13 14:42:38;;;;;;;5.03;4.53;;;;;;;;;;5033520;28;20676;-85
2021/05/13 14:45:07;;;;;;;5.03;4.57;;;;;;;;;;5034610;28;20214;-85
2021/05/13 14:47:34;;;;;;;4.78;3.65;;;;;;;;;;5033792;28;20198;-85
2021/05/13 14:50:02;;;;;;;5.50;4.93;;;;;;;;;;5033599;28;20222;-85
2021/05/13 14:52:29;;;;;;;3.80;3.50;;;;;;;;;;5033819;28;20210;-85
2021/05/13 14:54:56;;;;;;;5.30;4.80;;;;;;;;;;5033328;28;20579;-85